sensor_id;sensor_type;location;lat;lon;timestamp;pressure;altitude;pressure_sealevel;temperature;humidity
25664;BME280;13522;50.018;20.014;2023-12-22T00:00:48;95787.06;;;5.80;100.00
25664;BME280;13522;50.018;20.014;2023-12-22T00:04:04;95775.27;;;5.76;100.00
25664;BME280;13522;50.018;20.014;2023-12-22T00:07:18;95774.84;;;5.72;100.00
25664;BME280;13522;50.018;20.014;2023-12-22T00:10:30;95785.53;;;5.71;100.00
25664;BME280;13522;50.018;20.014;2023-12-22T00:13:44;95781.28;;;5.70;100.00
25664;BME280;13522;50.018;20.014;2023-12-22T00:16:56;95792.98;;;5.67;100.00
25664;BME280;13522;50.018;20.014;2023-12-22T00:20:14;95806.15;;;5.67;100.00
25664;BME280;13522;50.018;20.014;2023-12-22T00:23:27;95805.08;;;5.62;100.00
25664;BME280;13522;50.018;20.014;2023-12-22T00:26:42;95805.90;;;5.62;100.00
25664;BME280;13522;50.018;20.014;2023-12-22T00:29:55;95804.25;;;5.61;100.00
25664;BME280;13522;50.018;20.014;2023-12-22T00:33:07;95806.25;;;5.59;100.00
25664;BME280;13522;50.018;20.014;2023-12-22T00:36:21;95814.34;;;5.58;100.00
25664;BME280;13522;50.018;20.014;2023-12-22T00:39:34;95798.74;;;5.56;100.00
25664;BME280;13522;50.018;20.014;2023-12-22T00:42:47;95810.00;;;5.50;100.00
25664;BME280;13522;50.018;20.014;2023-12-22T00:46:01;95817.08;;;5.50;100.00
25664;BME280;13522;50.018;20.014;2023-12-22T00:49:16;95812.64;;;5.50;100.00
25664;BME280;13522;50.018;20.014;2023-12-22T00:52:32;95804.02;;;5.42;100.00
25664;BME280;13522;50.018;20.014;2023-12-22T00:55:44;95834.04;;;5.47;100.00
25664;BME280;13522;50.018;20.014;2023-12-22T00:58:57;95856.01;;;5.54;100.00
25664;BME280;13522;50.018;20.014;2023-12-22T01:02:13;95879.50;;;5.56;100.00
25664;BME280;13522;50.018;20.014;2023-12-22T01:05:26;95859.44;;;5.55;100.00
25664;BME280;13522;50.018;20.014;2023-12-22T01:08:40;95861.17;;;5.48;100.00
25664;BME280;13522;50.018;20.014;2023-12-22T01:11:54;95858.30;;;5.43;100.00
25664;BME280;13522;50.018;20.014;2023-12-22T01:15:10;95862.44;;;5.37;100.00
25664;BME280;13522;50.018;20.014;2023-12-22T01:18:23;95867.07;;;5.35;100.00
25664;BME280;13522;50.018;20.014;2023-12-22T01:21:39;95871.54;;;5.35;100.00
25664;BME280;13522;50.018;20.014;2023-12-22T01:24:54;95873.05;;;5.29;100.00
25664;BME280;13522;50.018;20.014;2023-12-22T01:28:08;95884.85;;;5.33;100.00
25664;BME280;13522;50.018;20.014;2023-12-22T01:31:24;95881.23;;;5.34;100.00
25664;BME280;13522;50.018;20.014;2023-12-22T01:34:37;95882.86;;;5.35;100.00
25664;BME280;13522;50.018;20.014;2023-12-22T01:37:52;95884.21;;;5.31;100.00
25664;BME280;13522;50.018;20.014;2023-12-22T01:41:05;95885.95;;;5.24;100.00
25664;BME280;13522;50.018;20.014;2023-12-22T01:44:19;95891.30;;;5.16;100.00
25664;BME280;13522;50.018;20.014;2023-12-22T01:47:32;95887.77;;;5.09;100.00
25664;BME280;13522;50.018;20.014;2023-12-22T01:50:45;95893.73;;;5.03;100.00
25664;BME280;13522;50.018;20.014;2023-12-22T01:53:59;95890.81;;;4.98;100.00
25664;BME280;13522;50.018;20.014;2023-12-22T01:57:17;95891.97;;;4.95;100.00
25664;BME280;13522;50.018;20.014;2023-12-22T02:00:55;95888.25;;;4.90;100.00
25664;BME280;13522;50.018;20.014;2023-12-22T02:04:10;95897.95;;;4.89;100.00
25664;BME280;13522;50.018;20.014;2023-12-22T02:07:23;95899.66;;;4.82;100.00
25664;BME280;13522;50.018;20.014;2023-12-22T02:10:37;95901.38;;;4.75;100.00
25664;BME280;13522;50.018;20.014;2023-12-22T02:13:54;95892.67;;;4.75;100.00
25664;BME280;13522;50.018;20.014;2023-12-22T02:17:15;95891.84;;;4.74;100.00
25664;BME280;13522;50.018;20.014;2023-12-22T02:20:32;95900.10;;;4.71;100.00
25664;BME280;13522;50.018;20.014;2023-12-22T02:23:49;95891.66;;;4.76;100.00
25664;BME280;13522;50.018;20.014;2023-12-22T02:27:05;95891.66;;;4.76;100.00
25664;BME280;13522;50.018;20.014;2023-12-22T02:30:25;95906.16;;;4.72;100.00
25664;BME280;13522;50.018;20.014;2023-12-22T02:33:40;95898.57;;;4.77;100.00
25664;BME280;13522;50.018;20.014;2023-12-22T02:36:54;95893.31;;;4.77;100.00
25664;BME280;13522;50.018;20.014;2023-12-22T02:40:10;95894.93;;;4.78;100.00
25664;BME280;13522;50.018;20.014;2023-12-22T02:43:26;95899.55;;;4.76;100.00
25664;BME280;13522;50.018;20.014;2023-12-22T02:46:39;95891.02;;;4.74;100.00
25664;BME280;13522;50.018;20.014;2023-12-22T02:49:53;95889.41;;;4.73;100.00
25664;BME280;13522;50.018;20.014;2023-12-22T02:53:08;95898.27;;;4.72;100.00
25664;BME280;13522;50.018;20.014;2023-12-22T02:56:21;95878.25;;;4.71;100.00
25664;BME280;13522;50.018;20.014;2023-12-22T02:59:34;95886.14;;;4.71;100.00
25664;BME280;13522;50.018;20.014;2023-12-22T03:02:47;95894.02;;;4.71;100.00
25664;BME280;13522;50.018;20.014;2023-12-22T03:06:00;95898.75;;;4.75;100.00
25664;BME280;13522;50.018;20.014;2023-12-22T03:09:14;95905.45;;;4.78;100.00
25664;BME280;13522;50.018;20.014;2023-12-22T03:12:28;95898.20;;;4.80;100.00
25664;BME280;13522;50.018;20.014;2023-12-22T03:15:43;95884.15;;;4.73;100.00
25664;BME280;13522;50.018;20.014;2023-12-22T03:18:57;95890.11;;;4.67;100.00
25664;BME280;13522;50.018;20.014;2023-12-22T03:22:14;95890.75;;;4.69;100.00
25664;BME280;13522;50.018;20.014;2023-12-22T03:25:42;95889.86;;;4.76;100.00
25664;BME280;13522;50.018;20.014;2023-12-22T03:29:50;95905.81;;;4.75;100.00
25664;BME280;13522;50.018;20.014;2023-12-22T03:33:47;95915.50;;;4.74;100.00
25664;BME280;13522;50.018;20.014;2023-12-22T03:37:34;95919.41;;;4.78;100.00
25664;BME280;13522;50.018;20.014;2023-12-22T03:41:17;95908.26;;;4.76;100.00
25664;BME280;13522;50.018;20.014;2023-12-22T03:44:31;95894.02;;;4.71;100.00
25664;BME280;13522;50.018;20.014;2023-12-22T03:47:44;95906.98;;;4.72;100.00
25664;BME280;13522;50.018;20.014;2023-12-22T03:50:58;95908.14;;;4.70;100.00
25664;BME280;13522;50.018;20.014;2023-12-22T03:54:12;95915.11;;;4.63;100.00
25664;BME280;13522;50.018;20.014;2023-12-22T03:57:25;95928.48;;;4.53;100.00
25664;BME280;13522;50.018;20.014;2023-12-22T04:00:40;95908.81;;;4.49;100.00
25664;BME280;13522;50.018;20.014;2023-12-22T04:03:54;95919.84;;;4.45;100.00
25664;BME280;13522;50.018;20.014;2023-12-22T04:07:12;95919.59;;;4.54;99.97
25664;BME280;13522;50.018;20.014;2023-12-22T04:10:46;95930.41;;;4.59;95.43
25664;BME280;13522;50.018;20.014;2023-12-22T04:14:02;95932.16;;;4.67;91.93
25664;BME280;13522;50.018;20.014;2023-12-22T04:17:16;95918.38;;;4.65;90.54
25664;BME280;13522;50.018;20.014;2023-12-22T04:20:29;95927.42;;;4.62;89.51
25664;BME280;13522;50.018;20.014;2023-12-22T04:23:42;95925.03;;;4.53;90.23
25664;BME280;13522;50.018;20.014;2023-12-22T04:26:55;95926.84;;;4.52;89.10
25664;BME280;13522;50.018;20.014;2023-12-22T04:30:10;95935.59;;;4.45;88.90
25664;BME280;13522;50.018;20.014;2023-12-22T04:33:24;95964.50;;;4.45;90.21
25664;BME280;13522;50.018;20.014;2023-12-22T04:36:38;95935.59;;;4.45;91.24
25664;BME280;13522;50.018;20.014;2023-12-22T04:39:54;95931.50;;;4.42;91.67
25664;BME280;13522;50.018;20.014;2023-12-22T04:43:10;95935.47;;;4.38;92.60
25664;BME280;13522;50.018;20.014;2023-12-22T04:46:23;95919.89;;;4.36;93.27
25664;BME280;13522;50.018;20.014;2023-12-22T04:49:41;95926.15;;;4.35;93.79
25664;BME280;13522;50.018;20.014;2023-12-22T04:53:06;95928.78;;;4.35;94.53
25664;BME280;13522;50.018;20.014;2023-12-22T04:56:30;95911.19;;;4.36;95.10
25664;BME280;13522;50.018;20.014;2023-12-22T04:59:51;95921.23;;;4.32;96.61
25664;BME280;13522;50.018;20.014;2023-12-22T05:03:14;95904.18;;;4.28;96.73
25664;BME280;13522;50.018;20.014;2023-12-22T05:11:00;95912.66;;;4.38;96.02
25664;BME280;13522;50.018;20.014;2023-12-22T05:14:33;95915.22;;;4.47;94.02
25664;BME280;13522;50.018;20.014;2023-12-22T05:18:07;95909.27;;;4.53;94.12
25664;BME280;13522;50.018;20.014;2023-12-22T05:21:26;95902.67;;;4.57;93.14
25664;BME280;13522;50.018;20.014;2023-12-22T05:24:45;95897.88;;;4.60;92.79
25664;BME280;13522;50.018;20.014;2023-12-22T05:28:01;95927.42;;;4.62;93.35
25664;BME280;13522;50.018;20.014;2023-12-22T05:31:13;95944.99;;;4.62;94.38
25664;BME280;13522;50.018;20.014;2023-12-22T05:34:26;95968.70;;;4.54;94.77
25664;BME280;13522;50.018;20.014;2023-12-22T05:37:40;95981.27;;;4.44;97.18
25664;BME280;13522;50.018;20.014;2023-12-22T05:40:53;96036.03;;;3.69;100.00
25664;BME280;13522;50.018;20.014;2023-12-22T05:44:07;96042.95;;;2.08;100.00
25664;BME280;13522;50.018;20.014;2023-12-22T05:47:37;96051.92;;;1.46;100.00
25664;BME280;13522;50.018;20.014;2023-12-22T06:33:16;96107.79;;;1.45;100.00
25664;BME280;13522;50.018;20.014;2023-12-22T06:36:30;96113.75;;;1.55;100.00
25664;BME280;13522;50.018;20.014;2023-12-22T06:39:44;96103.83;;;1.58;100.00
25664;BME280;13522;50.018;20.014;2023-12-22T06:43:01;96115.14;;;1.67;100.00
25664;BME280;13522;50.018;20.014;2023-12-22T06:46:30;96131.16;;;1.64;100.00
25664;BME280;13522;50.018;20.014;2023-12-22T06:49:44;96129.98;;;1.58;100.00
25664;BME280;13522;50.018;20.014;2023-12-22T06:53:00;96134.67;;;1.55;100.00
25664;BME280;13522;50.018;20.014;2023-12-22T06:56:32;96142.67;;;1.53;100.00
25664;BME280;13522;50.018;20.014;2023-12-22T06:59:50;96141.75;;;1.62;100.00
25664;BME280;13522;50.018;20.014;2023-12-22T07:14:02;96160.10;;;1.88;100.00
25664;BME280;13522;50.018;20.014;2023-12-22T07:17:19;96163.01;;;1.85;100.00
25664;BME280;13522;50.018;20.014;2023-12-22T07:20:34;96147.31;;;1.85;100.00
25664;BME280;13522;50.018;20.014;2023-12-22T07:23:53;96157.78;;;1.85;100.00
25664;BME280;13522;50.018;20.014;2023-12-22T07:27:12;96168.75;;;1.89;100.00
25664;BME280;13522;50.018;20.014;2023-12-22T07:30:35;96178.45;;;1.96;100.00
25664;BME280;13522;50.018;20.014;2023-12-22T07:34:00;96172.87;;;1.91;100.00
25664;BME280;13522;50.018;20.014;2023-12-22T07:37:28;96184.34;;;1.98;100.00
25664;BME280;13522;50.018;20.014;2023-12-22T07:41:09;96187.50;;;2.02;100.00
25664;BME280;13522;50.018;20.014;2023-12-22T07:44:58;96179.83;;;2.08;100.00
25664;BME280;13522;50.018;20.014;2023-12-22T07:48:45;96191.97;;;2.09;100.00
25664;BME280;13522;50.018;20.014;2023-12-22T07:52:24;96179.89;;;2.16;100.00
25664;BME280;13522;50.018;20.014;2023-12-22T07:55:47;96188.27;;;2.20;100.00
25664;BME280;13522;50.018;20.014;2023-12-22T07:59:21;96195.80;;;2.23;100.00
25664;BME280;13522;50.018;20.014;2023-12-22T08:02:46;96189.49;;;2.33;100.00
25664;BME280;13522;50.018;20.014;2023-12-22T08:06:13;96185.63;;;2.45;100.00
25664;BME280;13522;50.018;20.014;2023-12-22T08:09:41;96189.58;;;2.49;100.00
25664;BME280;13522;50.018;20.014;2023-12-22T08:13:09;96181.90;;;2.56;100.00
25664;BME280;13522;50.018;20.014;2023-12-22T08:16:45;96177.82;;;2.61;100.00
25664;BME280;13522;50.018;20.014;2023-12-22T08:20:25;96175.87;;;2.63;100.00
25664;BME280;13522;50.018;20.014;2023-12-22T08:23:45;96173.61;;;2.69;100.00
25664;BME280;13522;50.018;20.014;2023-12-22T08:27:13;96157.27;;;2.75;100.00
25664;BME280;13522;50.018;20.014;2023-12-22T08:30:27;96171.35;;;2.82;100.00
25664;BME280;13522;50.018;20.014;2023-12-22T08:33:41;96158.78;;;2.85;100.00
25664;BME280;13522;50.018;20.014;2023-12-22T08:36:55;96161.92;;;2.97;100.00
25664;BME280;13522;50.018;20.014;2023-12-22T08:40:10;96155.04;;;3.04;100.00
25664;BME280;13522;50.018;20.014;2023-12-22T08:43:26;96155.06;;;3.12;100.00
25664;BME280;13522;50.018;20.014;2023-12-22T08:46:42;96168.86;;;3.30;100.00
25664;BME280;13522;50.018;20.014;2023-12-22T08:49:58;96165.91;;;3.41;100.00
25664;BME280;13522;50.018;20.014;2023-12-22T08:53:13;96160.02;;;3.55;100.00
25664;BME280;13522;50.018;20.014;2023-12-22T08:56:28;96158.40;;;3.62;100.00
25664;BME280;13522;50.018;20.014;2023-12-22T08:59:42;96164.30;;;3.64;100.00
25664;BME280;13522;50.018;20.014;2023-12-22T09:02:55;96159.71;;;3.66;100.00
25664;BME280;13522;50.018;20.014;2023-12-22T09:06:09;96159.37;;;3.69;100.00
25664;BME280;13522;50.018;20.014;2023-12-22T09:09:22;96140.03;;;3.54;100.00
25664;BME280;13522;50.018;20.014;2023-12-22T09:12:35;96155.13;;;3.76;99.54
25664;BME280;13522;50.018;20.014;2023-12-22T09:15:49;96183.64;;;3.79;98.13
25664;BME280;13522;50.018;20.014;2023-12-22T09:19:06;96174.28;;;3.77;97.98
25664;BME280;13522;50.018;20.014;2023-12-22T09:22:19;96169.38;;;3.66;99.78
25664;BME280;13522;50.018;20.014;2023-12-22T09:25:33;96204.58;;;3.31;100.00
25664;BME280;13522;50.018;20.014;2023-12-22T09:28:46;96208.07;;;2.90;100.00
25664;BME280;13522;50.018;20.014;2023-12-22T09:32:03;96207.95;;;2.57;100.00
25664;BME280;13522;50.018;20.014;2023-12-22T09:35:21;96213.66;;;2.53;100.00
25664;BME280;13522;50.018;20.014;2023-12-22T09:38:35;96201.22;;;2.55;100.00
25664;BME280;13522;50.018;20.014;2023-12-22T09:41:50;96197.57;;;2.48;100.00
25664;BME280;13522;50.018;20.014;2023-12-22T09:45:04;96184.18;;;2.51;100.00
25664;BME280;13522;50.018;20.014;2023-12-22T09:48:22;96185.34;;;2.56;100.00
25664;BME280;13522;50.018;20.014;2023-12-22T09:51:36;96176.20;;;2.60;100.00
25664;BME280;13522;50.018;20.014;2023-12-22T09:54:50;96175.56;;;2.67;100.00
25664;BME280;13522;50.018;20.014;2023-12-22T09:58:04;96157.27;;;2.75;100.00
25664;BME280;13522;50.018;20.014;2023-12-22T10:01:21;96137.67;;;2.95;100.00
25664;BME280;13522;50.018;20.014;2023-12-22T10:04:35;96131.45;;;3.04;100.00
25664;BME280;13522;50.018;20.014;2023-12-22T10:07:49;96134.75;;;3.22;100.00
25664;BME280;13522;50.018;20.014;2023-12-22T10:11:03;96126.23;;;3.20;100.00
25664;BME280;13522;50.018;20.014;2023-12-22T10:14:18;96122.30;;;3.24;100.00
25664;BME280;13522;50.018;20.014;2023-12-22T10:17:32;96139.19;;;3.29;100.00
25664;BME280;13522;50.018;20.014;2023-12-22T10:20:46;96146.22;;;3.29;100.00
25664;BME280;13522;50.018;20.014;2023-12-22T10:23:59;96129.84;;;3.35;100.00
25664;BME280;13522;50.018;20.014;2023-12-22T10:27:13;96147.41;;;3.42;100.00
25664;BME280;13522;50.018;20.014;2023-12-22T10:30:29;96145.09;;;3.31;100.00
25664;BME280;13522;50.018;20.014;2023-12-22T10:33:44;96140.98;;;3.29;100.00
25664;BME280;13522;50.018;20.014;2023-12-22T10:36:59;96144.59;;;3.28;100.00
25664;BME280;13522;50.018;20.014;2023-12-22T10:40:14;96147.06;;;3.37;100.00
25664;BME280;13522;50.018;20.014;2023-12-22T10:43:28;96140.99;;;3.45;100.00
25664;BME280;13522;50.018;20.014;2023-12-22T10:46:42;96136.09;;;3.50;100.00
25664;BME280;13522;50.018;20.014;2023-12-22T10:49:57;96140.03;;;3.62;100.00
25664;BME280;13522;50.018;20.014;2023-12-22T10:53:16;96137.41;;;3.78;100.00
25664;BME280;13522;50.018;20.014;2023-12-22T10:56:32;96124.41;;;3.85;100.00
25664;BME280;13522;50.018;20.014;2023-12-22T10:59:48;96119.63;;;3.96;100.00
25664;BME280;13522;50.018;20.014;2023-12-22T11:03:07;96131.30;;;4.02;100.00
25664;BME280;13522;50.018;20.014;2023-12-22T11:06:22;96120.60;;;4.11;97.40
25664;BME280;13522;50.018;20.014;2023-12-22T11:09:42;96112.53;;;4.21;96.50
25664;BME280;13522;50.018;20.014;2023-12-22T11:12:58;96113.83;;;4.25;96.26
25664;BME280;13522;50.018;20.014;2023-12-22T11:16:14;96107.75;;;4.24;96.19
25664;BME280;13522;50.018;20.014;2023-12-22T11:19:31;96104.47;;;4.22;95.31
25664;BME280;13522;50.018;20.014;2023-12-22T11:22:49;96094.14;;;4.21;95.32
25664;BME280;13522;50.018;20.014;2023-12-22T11:26:07;96083.99;;;4.18;95.70
25664;BME280;13522;50.018;20.014;2023-12-22T11:29:24;96095.47;;;4.17;96.74
25664;BME280;13522;50.018;20.014;2023-12-22T11:32:40;96106.36;;;3.98;99.55
25664;BME280;13522;50.018;20.014;2023-12-22T11:35:57;96117.87;;;3.65;100.00
25664;BME280;13522;50.018;20.014;2023-12-22T11:39:13;96150.30;;;3.15;100.00
25664;BME280;13522;50.018;20.014;2023-12-22T11:42:30;96139.72;;;2.67;100.00
25664;BME280;13522;50.018;20.014;2023-12-22T11:45:51;96148.64;;;2.48;100.00
25664;BME280;13522;50.018;20.014;2023-12-22T11:49:05;96115.27;;;2.17;100.00
25664;BME280;13522;50.018;20.014;2023-12-22T11:52:26;96143.99;;;2.34;100.00
25664;BME280;13522;50.018;20.014;2023-12-22T11:56:01;96140.55;;;2.34;100.00
25664;BME280;13522;50.018;20.014;2023-12-22T11:59:18;96134.84;;;2.38;100.00
25664;BME280;13522;50.018;20.014;2023-12-22T12:02:34;96123.50;;;2.30;100.00
25664;BME280;13522;50.018;20.014;2023-12-22T12:05:48;96116.48;;;2.30;100.00
25664;BME280;13522;50.018;20.014;2023-12-22T12:09:08;96126.29;;;2.28;100.00
25664;BME280;13522;50.018;20.014;2023-12-22T12:12:25;96096.78;;;2.18;100.00
25664;BME280;13522;50.018;20.014;2023-12-22T12:15:41;96115.85;;;2.36;100.00
25664;BME280;13522;50.018;20.014;2023-12-22T12:18:54;96133.52;;;2.34;100.00
25664;BME280;13522;50.018;20.014;2023-12-22T12:22:08;96131.27;;;2.39;100.00
25664;BME280;13522;50.018;20.014;2023-12-22T12:25:24;96145.52;;;2.45;100.00
25664;BME280;13522;50.018;20.014;2023-12-22T12:28:45;96130.30;;;2.48;100.00
25664;BME280;13522;50.018;20.014;2023-12-22T12:32:05;96100.84;;;2.46;100.00
25664;BME280;13522;50.018;20.014;2023-12-22T12:35:20;96116.55;;;2.46;100.00
25664;BME280;13522;50.018;20.014;2023-12-22T12:38:42;96108.86;;;2.45;100.00
25664;BME280;13522;50.018;20.014;2023-12-22T12:41:57;96119.66;;;2.50;100.00
25664;BME280;13522;50.018;20.014;2023-12-22T12:45:15;96114.59;;;2.48;100.00
25664;BME280;13522;50.018;20.014;2023-12-22T12:48:34;96112.80;;;2.49;100.00
25664;BME280;13522;50.018;20.014;2023-12-22T12:51:48;96111.34;;;2.54;100.00
25664;BME280;13522;50.018;20.014;2023-12-22T12:55:01;96108.92;;;2.61;100.00
25664;BME280;13522;50.018;20.014;2023-12-22T13:01:53;96104.17;;;2.64;100.00
25664;BME280;13522;50.018;20.014;2023-12-22T13:05:22;96082.22;;;2.65;100.00
25664;BME280;13522;50.018;20.014;2023-12-22T13:08:41;96077.00;;;2.74;100.00
25664;BME280;13522;50.018;20.014;2023-12-22T13:12:11;96070.33;;;2.79;100.00
25664;BME280;13522;50.018;20.014;2023-12-22T13:34:26;96059.55;;;3.14;100.00
25664;BME280;13522;50.018;20.014;2023-12-22T13:37:55;96097.39;;;3.20;100.00
25664;BME280;13522;50.018;20.014;2023-12-22T13:41:25;96107.33;;;2.84;100.00
25664;BME280;13522;50.018;20.014;2023-12-22T13:44:43;96102.80;;;2.44;100.00
25664;BME280;13522;50.018;20.014;2023-12-22T13:47:59;96107.42;;;2.17;100.00
25664;BME280;13522;50.018;20.014;2023-12-22T13:51:19;96087.56;;;2.06;100.00
25664;BME280;13522;50.018;20.014;2023-12-22T13:54:35;96106.17;;;1.95;100.00
25664;BME280;13522;50.018;20.014;2023-12-22T13:57:49;96098.27;;;1.87;100.00
25664;BME280;13522;50.018;20.014;2023-12-22T14:01:16;96115.92;;;1.85;100.00
25664;BME280;13522;50.018;20.014;2023-12-22T14:04:29;96116.63;;;1.95;100.00
25664;BME280;13522;50.018;20.014;2023-12-22T14:07:44;96106.55;;;2.08;100.00
25664;BME280;13522;50.018;20.014;2023-12-22T14:10:59;96116.61;;;2.21;100.00
25664;BME280;13522;50.018;20.014;2023-12-22T14:14:15;96107.03;;;2.37;100.00
25664;BME280;13522;50.018;20.014;2023-12-22T14:17:33;96124.41;;;2.46;100.00
25664;BME280;13522;50.018;20.014;2023-12-22T14:20:49;96119.50;;;2.43;100.00
25664;BME280;13522;50.018;20.014;2023-12-22T14:24:42;96112.97;;;2.47;100.00
25664;BME280;13522;50.018;20.014;2023-12-22T14:32:07;96113.30;;;2.52;100.00
25664;BME280;13522;50.018;20.014;2023-12-22T15:02:51;96129.82;;;3.03;83.23
25664;BME280;13522;50.018;20.014;2023-12-22T15:06:07;96141.46;;;3.08;82.61
25664;BME280;13522;50.018;20.014;2023-12-22T16:38:31;96145.26;;;3.30;77.19
25664;BME280;13522;50.018;20.014;2023-12-22T16:42:20;96144.26;;;3.31;77.37
25664;BME280;13522;50.018;20.014;2023-12-22T17:00:30;96152.78;;;3.33;76.45
25664;BME280;13522;50.018;20.014;2023-12-22T17:22:05;96174.19;;;2.96;82.51
25664;BME280;13522;50.018;20.014;2023-12-22T17:34:43;96191.69;;;2.88;83.81
25664;BME280;13522;50.018;20.014;2023-12-22T17:43:04;96180.91;;;2.91;84.62
